Time;durP1;ratioP1;P1;durP2;ratioP2;P2;SDS_P1;SDS_P2;PMS_P1;PMS_P2;Temp;Humidity;BMP_temperature;BMP_pressure;BME280_temperature;BME280_humidity;BME280_pressure;Samples;Min_cycle;Max_cycle;Signal;HPM_P1;HPM_P2
2022/12/02 00:02:26;;;;;;;42.35;10.07;;;2.10;99.90;;;;;;4980700;28;20030;-93
2022/12/02 00:04:56;;;;;;;73.40;10.13;;;2.10;99.90;;;;;;4993133;28;20107;-94
2022/12/02 00:07:24;;;;;;;53.72;8.80;;;2.00;99.90;;;;;;4972712;28;20086;-95
2022/12/02 00:10:00;;;;;;;57.33;10.65;;;2.00;99.90;;;;;;4975361;28;20648;-94
2022/12/02 00:12:30;;;;;;;23.63;8.40;;;1.90;99.90;;;;;;4974695;29;20029;-94
2022/12/02 00:15:02;;;;;;;40.45;8.45;;;1.90;99.90;;;;;;4960487;29;20039;-93
2022/12/02 00:17:28;;;;;;;34.55;7.13;;;1.80;99.90;;;;;;4977589;29;20035;-93
2022/12/02 00:19:54;;;;;;;14.88;6.80;;;1.80;99.90;;;;;;4962073;29;20035;-93
2022/12/02 00:22:22;;;;;;;15.80;6.68;;;1.80;99.90;;;;;;4976041;29;20050;-94
2022/12/02 00:24:56;;;;;;;26.63;9.02;;;1.70;99.90;;;;;;4976938;28;20046;-95
2022/12/02 00:27:21;;;;;;;61.97;8.93;;;1.70;99.90;;;;;;4961905;29;20058;-95
2022/12/02 00:29:47;;;;;;;66.25;10.52;;;1.70;99.90;;;;;;4976030;29;20055;-94
2022/12/02 00:32:16;;;;;;;56.65;10.13;;;1.70;99.90;;;;;;4976005;29;20034;-94
2022/12/02 00:34:47;;;;;;;27.63;7.88;;;1.70;99.90;;;;;;4978666;28;20035;-94
2022/12/02 00:37:17;;;;;;;27.27;8.80;;;1.70;99.90;;;;;;4978811;28;20030;-95
2022/12/02 00:39:43;;;;;;;26.13;7.90;;;1.70;99.90;;;;;;4978813;29;20019;-96
2022/12/02 00:42:11;;;;;;;21.52;8.82;;;1.70;99.90;;;;;;4978817;28;20036;-95
2022/12/02 00:47:26;;;;;;;22.30;8.75;;;1.70;99.90;;;;;;4979220;28;20077;-95
2022/12/02 00:49:52;;;;;;;28.63;9.02;;;1.70;99.90;;;;;;4959972;29;20098;-96
2022/12/02 00:52:18;;;;;;;40.00;10.25;;;1.80;99.90;;;;;;4976210;29;20036;-94
2022/12/02 00:54:43;;;;;;;68.70;12.57;;;1.80;99.90;;;;;;4960371;29;20039;-95
2022/12/02 00:57:09;;;;;;;43.45;9.98;;;1.80;99.90;;;;;;4974073;29;20116;-94
2022/12/02 00:59:35;;;;;;;47.35;10.02;;;1.90;99.90;;;;;;4974100;29;20028;-96
2022/12/02 01:02:03;;;;;;;46.08;10.63;;;1.90;99.90;;;;;;4974634;28;20047;-94
2022/12/02 01:04:29;;;;;;;55.60;10.25;;;1.90;99.90;;;;;;4974359;29;20058;-93
2022/12/02 01:06:55;;;;;;;116.78;10.52;;;1.90;99.90;;;;;;4957589;29;20046;-94
2022/12/02 01:09:23;;;;;;;46.10;9.82;;;1.90;99.90;;;;;;4960718;28;20012;-94
2022/12/02 01:11:59;;;;;;;63.95;10.55;;;1.80;99.90;;;;;;4974028;28;20047;-93
2022/12/02 01:14:24;;;;;;;49.95;9.57;;;1.80;99.90;;;;;;4977336;28;20022;-93
2022/12/02 01:16:51;;;;;;;81.13;11.88;;;1.80;99.90;;;;;;4977210;29;20039;-93
2022/12/02 01:19:17;;;;;;;54.40;9.05;;;1.80;99.90;;;;;;4976214;29;20058;-92
2022/12/02 01:21:44;;;;;;;37.45;10.32;;;1.80;99.90;;;;;;4976434;29;20043;-93
2022/12/02 01:24:15;;;;;;;43.40;8.43;;;1.70;99.90;;;;;;4977534;29;20111;-94
2022/12/02 01:26:41;;;;;;;47.55;8.82;;;1.70;99.90;;;;;;4976085;29;20042;-93
2022/12/02 01:29:07;;;;;;;34.55;8.40;;;1.70;99.90;;;;;;4974989;29;20019;-93
2022/12/02 01:31:33;;;;;;;41.15;8.45;;;1.70;99.90;;;;;;4975549;29;20032;-93
2022/12/02 01:33:58;;;;;;;37.78;9.27;;;1.80;99.90;;;;;;4974639;29;20078;-93
2022/12/02 01:36:24;;;;;;;53.90;10.18;;;1.80;99.90;;;;;;4976865;29;20022;-94
2022/12/02 01:38:50;;;;;;;64.60;8.68;;;1.80;99.90;;;;;;4976068;29;20270;-92
2022/12/02 01:41:18;;;;;;;62.53;11.23;;;1.80;99.90;;;;;;4974350;29;20034;-94
2022/12/02 01:43:44;;;;;;;56.17;9.18;;;1.80;99.90;;;;;;4974762;29;20051;-93
2022/12/02 01:46:12;;;;;;;26.95;8.43;;;1.80;99.90;;;;;;4977556;28;20035;-95
2022/12/02 01:48:38;;;;;;;45.28;8.93;;;1.80;99.90;;;;;;4991837;28;20034;-93
2022/12/02 01:51:05;;;;;;;40.65;9.38;;;1.70;99.90;;;;;;4992218;28;20050;-94
2022/12/02 01:53:33;;;;;;;21.95;8.13;;;1.70;99.90;;;;;;4994113;28;20046;-94
2022/12/02 01:55:59;;;;;;;62.72;11.20;;;1.70;99.90;;;;;;4992228;28;20138;-93
2022/12/02 01:58:29;;;;;;;27.10;7.35;;;1.80;99.90;;;;;;4992585;28;20050;-94
2022/12/02 02:00:55;;;;;;;28.15;8.38;;;1.70;99.90;;;;;;4992593;28;20027;-94
2022/12/02 02:03:21;;;;;;;39.47;9.18;;;1.70;99.90;;;;;;4991782;28;20027;-94
2022/12/02 02:05:47;;;;;;;40.25;10.50;;;1.70;99.90;;;;;;4993612;28;20038;-94
2022/12/02 02:08:13;;;;;;;71.18;12.93;;;1.70;99.90;;;;;;4992466;28;20039;-93
2022/12/02 02:10:45;;;;;;;51.47;10.20;;;1.70;99.90;;;;;;4993462;28;20030;-93
2022/12/02 02:13:13;;;;;;;65.80;11.00;;;1.70;99.90;;;;;;4995548;28;20026;-93
2022/12/02 02:15:41;;;;;;;71.38;10.85;;;1.70;99.90;;;;;;4996530;28;20033;-93
2022/12/02 02:18:07;;;;;;;28.30;8.65;;;1.70;99.90;;;;;;4997886;28;20033;-93
2022/12/02 02:20:37;;;;;;;42.15;9.18;;;1.70;99.90;;;;;;4998942;28;20207;-94
2022/12/02 02:23:06;;;;;;;53.47;10.85;;;1.70;99.90;;;;;;4999226;28;20011;-93
2022/12/02 02:25:33;;;;;;;48.50;9.48;;;1.70;99.90;;;;;;4998504;28;20056;-94
2022/12/02 02:28:00;;;;;;;123.15;11.95;;;1.60;99.90;;;;;;4997290;28;20086;-94
2022/12/02 02:30:32;;;;;;;90.30;14.00;;;1.60;99.90;;;;;;4996482;28;20028;-96
2022/12/02 02:33:01;;;;;;;58.50;10.85;;;1.60;99.90;;;;;;4997357;28;20019;-94
2022/12/02 02:35:33;;;;;;;112.28;12.77;;;1.60;99.90;;;;;;4980055;28;20039;-93
2022/12/02 02:38:03;;;;;;;52.67;9.75;;;1.50;99.90;;;;;;4998106;28;20022;-93
2022/12/02 02:40:29;;;;;;;119.82;11.70;;;1.50;99.90;;;;;;4983125;28;20027;-94
2022/12/02 02:42:59;;;;;;;70.32;10.23;;;1.50;99.90;;;;;;4998454;28;20042;-95
2022/12/02 02:45:27;;;;;;;55.40;9.20;;;1.50;99.90;;;;;;4997765;28;20131;-92
2022/12/02 02:47:54;;;;;;;72.25;9.57;;;1.50;99.90;;;;;;4995249;28;20025;-94
2022/12/02 02:50:21;;;;;;;43.25;9.55;;;1.50;99.90;;;;;;4995945;28;20065;-93
2022/12/02 02:52:51;;;;;;;125.57;16.75;;;1.50;99.90;;;;;;4982915;28;20194;-92
2022/12/02 02:55:24;;;;;;;36.67;11.07;;;1.50;99.90;;;;;;4998898;28;20095;-93
2022/12/02 02:57:53;;;;;;;39.40;9.25;;;1.50;99.90;;;;;;4997241;28;20043;-95
2022/12/02 03:00:21;;;;;;;46.50;10.32;;;1.50;99.90;;;;;;4996999;28;20011;-94
2022/12/02 03:02:54;;;;;;;77.43;10.68;;;1.50;99.90;;;;;;4996400;28;20019;-92
2022/12/02 03:05:21;;;;;;;49.85;8.73;;;1.50;99.90;;;;;;4996468;28;20047;-95
2022/12/02 03:07:47;;;;;;;92.72;12.70;;;1.50;99.90;;;;;;4991350;28;20026;-94
2022/12/02 03:10:13;;;;;;;179.70;14.68;;;1.40;99.90;;;;;;4991937;28;20034;-95
2022/12/02 03:12:39;;;;;;;186.90;17.00;;;1.40;99.90;;;;;;4990518;28;20042;-92
2022/12/02 03:15:07;;;;;;;36.88;9.70;;;1.40;99.90;;;;;;4991748;28;20023;-93
2022/12/02 03:17:33;;;;;;;70.93;11.18;;;1.40;99.90;;;;;;4991756;28;20399;-93
2022/12/02 03:19:59;;;;;;;40.58;10.68;;;1.40;99.90;;;;;;4994109;28;20034;-94
2022/12/02 03:22:25;;;;;;;56.53;10.38;;;1.40;99.90;;;;;;4992402;28;20046;-94
2022/12/02 03:24:51;;;;;;;90.95;12.13;;;1.40;99.90;;;;;;4989734;28;20047;-94
2022/12/02 03:27:19;;;;;;;54.35;10.63;;;1.50;99.90;;;;;;4995741;28;20042;-96
2022/12/02 03:29:45;;;;;;;54.72;11.60;;;1.50;99.90;;;;;;4997821;28;20039;-94
2022/12/02 03:32:12;;;;;;;53.38;11.57;;;1.40;99.90;;;;;;4997622;28;20022;-95
2022/12/02 03:34:46;;;;;;;41.80;11.70;;;1.40;99.90;;;;;;4998745;28;20046;-95
2022/12/02 03:37:12;;;;;;;120.10;13.43;;;1.50;99.90;;;;;;4999598;28;20063;-94
2022/12/02 03:39:39;;;;;;;101.50;12.00;;;1.40;99.90;;;;;;4999911;28;20023;-95
2022/12/02 03:42:05;;;;;;;70.88;12.07;;;1.40;99.90;;;;;;4999526;28;20026;-94
2022/12/02 03:44:31;;;;;;;29.08;9.73;;;1.40;99.90;;;;;;4997782;28;20070;-94
2022/12/02 03:46:59;;;;;;;72.28;12.18;;;1.30;99.90;;;;;;4981607;28;20050;-95
2022/12/02 03:49:30;;;;;;;90.80;11.85;;;1.40;99.90;;;;;;4997790;28;20053;-95
2022/12/02 03:51:56;;;;;;;65.30;12.23;;;1.30;99.90;;;;;;4995853;28;20034;-96
2022/12/02 03:54:23;;;;;;;51.75;11.50;;;1.30;99.90;;;;;;4996968;28;20043;-96
2022/12/02 03:56:53;;;;;;;69.50;12.60;;;1.30;99.90;;;;;;4981393;28;20022;-95
2022/12/02 03:59:21;;;;;;;53.58;13.60;;;1.30;99.90;;;;;;4998155;28;20031;-96
2022/12/02 04:01:47;;;;;;;56.38;11.18;;;1.40;99.90;;;;;;4981769;28;20046;-94
2022/12/02 04:04:16;;;;;;;85.97;14.55;;;1.40;99.90;;;;;;4996003;28;20070;-95
2022/12/02 04:06:42;;;;;;;60.67;11.30;;;1.40;99.90;;;;;;4995331;28;20107;-96
2022/12/02 04:09:07;;;;;;;57.92;10.90;;;1.40;99.90;;;;;;4995978;28;20031;-95
2022/12/02 04:11:33;;;;;;;76.30;12.77;;;1.40;99.90;;;;;;4980970;28;20074;-96
2022/12/02 04:13:59;;;;;;;107.85;11.90;;;1.40;99.90;;;;;;4995386;28;20062;-93
2022/12/02 04:16:25;;;;;;;66.50;12.13;;;1.30;99.90;;;;;;4995831;28;20011;-94
2022/12/02 04:18:51;;;;;;;52.25;11.25;;;1.40;99.90;;;;;;4996114;28;20079;-96
2022/12/02 04:21:16;;;;;;;42.58;10.23;;;1.30;99.90;;;;;;4994338;28;20035;-95
2022/12/02 04:23:42;;;;;;;50.15;11.82;;;1.30;99.90;;;;;;4994629;28;20058;-95
2022/12/02 04:26:08;;;;;;;57.00;16.60;;;1.30;99.90;;;;;;4993591;28;20023;-93
2022/12/02 04:28:33;;;;;;;66.30;13.80;;;1.40;99.90;;;;;;4994692;28;20054;-94
2022/12/02 04:31:09;;;;;;;51.72;13.57;;;1.30;99.90;;;;;;4994951;28;20023;-95
2022/12/02 04:33:35;;;;;;;60.97;15.52;;;1.30;99.90;;;;;;5011609;28;20031;-94
2022/12/02 04:36:04;;;;;;;83.90;12.32;;;1.30;99.90;;;;;;4995971;28;20572;-96
2022/12/02 04:38:31;;;;;;;67.15;15.52;;;1.30;99.90;;;;;;4995987;28;20035;-96
2022/12/02 04:40:57;;;;;;;47.80;13.23;;;1.30;99.90;;;;;;4995743;28;20087;-94
2022/12/02 04:43:23;;;;;;;54.65;14.00;;;1.40;99.90;;;;;;4991773;28;20049;-96
2022/12/02 04:45:49;;;;;;;47.78;15.02;;;1.30;99.90;;;;;;4975673;28;20045;-94
2022/12/02 04:48:14;;;;;;;40.55;13.02;;;1.30;99.90;;;;;;4992879;28;20031;-94
2022/12/02 04:50:40;;;;;;;60.53;15.93;;;1.30;99.90;;;;;;4993092;28;20114;-95
2022/12/02 04:53:06;;;;;;;51.80;14.10;;;1.30;99.90;;;;;;4989055;28;20100;-95
2022/12/02 04:55:33;;;;;;;51.60;15.90;;;1.30;99.90;;;;;;4985139;28;20104;-93
2022/12/02 04:58:00;;;;;;;53.72;15.05;;;1.40;99.90;;;;;;4970840;29;20039;-95
2022/12/02 05:00:28;;;;;;;54.65;14.43;;;1.40;99.90;;;;;;4951857;29;20028;-95
2022/12/02 05:02:54;;;;;;;49.97;15.88;;;1.40;99.90;;;;;;4954052;29;20039;-93
2022/12/02 05:05:20;;;;;;;45.42;13.18;;;1.40;99.90;;;;;;4971311;29;20051;-94
2022/12/02 05:07:46;;;;;;;63.05;13.98;;;1.40;99.90;;;;;;4974357;29;20039;-93
2022/12/02 05:10:12;;;;;;;52.28;14.10;;;1.50;99.90;;;;;;4975797;29;20011;-94
2022/12/02 05:12:40;;;;;;;48.45;13.88;;;1.50;99.90;;;;;;4971674;29;20038;-95
2022/12/02 05:15:07;;;;;;;78.97;14.02;;;1.50;99.90;;;;;;4972037;29;20067;-95
2022/12/02 05:17:35;;;;;;;63.72;15.70;;;1.40;99.90;;;;;;4972831;28;20050;-94
2022/12/02 05:20:01;;;;;;;55.88;15.68;;;1.50;99.90;;;;;;4969912;28;20043;-95
2022/12/02 05:22:27;;;;;;;50.90;14.35;;;1.50;99.90;;;;;;4965582;29;20035;-94
2022/12/02 05:24:54;;;;;;;62.00;14.73;;;1.50;99.90;;;;;;4968660;29;20075;-93
2022/12/02 05:27:20;;;;;;;47.90;15.05;;;1.50;99.90;;;;;;4968945;29;20030;-95
2022/12/02 05:29:46;;;;;;;67.43;16.33;;;1.50;99.90;;;;;;4973445;29;20047;-95
2022/12/02 05:32:11;;;;;;;61.40;16.17;;;1.50;99.90;;;;;;4975693;29;20046;-94
2022/12/02 05:34:37;;;;;;;176.75;18.63;;;1.50;99.90;;;;;;4976571;29;20072;-96
2022/12/02 05:37:03;;;;;;;89.05;19.42;;;1.40;99.90;;;;;;4977806;28;20027;-93
2022/12/02 05:39:28;;;;;;;70.95;17.70;;;1.40;99.90;;;;;;4977050;28;20024;-93
2022/12/02 05:41:59;;;;;;;75.18;17.95;;;1.40;99.90;;;;;;4976010;29;20032;-94
2022/12/02 05:44:26;;;;;;;66.85;19.52;;;1.40;99.90;;;;;;4975384;29;20034;-94
2022/12/02 05:46:57;;;;;;;65.32;19.25;;;1.40;99.90;;;;;;4971187;29;20279;-93
2022/12/02 05:49:23;;;;;;;68.45;19.60;;;1.40;99.90;;;;;;4977842;28;20106;-93
2022/12/02 05:51:56;;;;;;;80.07;21.10;;;1.30;99.90;;;;;;4980197;29;20053;-95
2022/12/02 05:54:22;;;;;;;68.50;20.33;;;1.40;99.90;;;;;;4979193;29;20056;-93
2022/12/02 05:56:48;;;;;;;68.82;20.58;;;1.40;99.90;;;;;;4980569;28;20020;-93
2022/12/02 05:59:17;;;;;;;62.28;19.75;;;1.40;99.90;;;;;;4979212;29;20055;-93
2022/12/02 06:01:48;;;;;;;64.97;18.90;;;1.40;99.90;;;;;;4977622;29;20031;-93
2022/12/02 06:04:28;;;;;;;76.18;21.45;;;1.40;99.90;;;;;;4973962;29;20046;-95
2022/12/02 06:06:55;;;;;;;63.78;19.55;;;1.40;99.90;;;;;;4969999;29;20031;-93
2022/12/02 06:09:31;;;;;;;68.10;19.33;;;1.40;99.90;;;;;;4973712;29;20090;-93
2022/12/02 06:11:57;;;;;;;70.50;20.08;;;1.40;99.90;;;;;;4972379;29;20036;-94
2022/12/02 06:14:27;;;;;;;70.03;20.05;;;1.40;99.90;;;;;;4973303;29;20199;-94
2022/12/02 06:17:14;;;;;;;66.15;19.60;;;1.40;99.90;;;;;;4973407;29;20412;-94
2022/12/02 06:19:44;;;;;;;65.38;19.30;;;1.40;99.90;;;;;;4974704;29;20027;-95
2022/12/02 06:22:34;;;;;;;67.22;18.27;;;1.30;99.90;;;;;;4974078;29;20525;-93
2022/12/02 06:25:02;;;;;;;65.88;18.70;;;1.40;99.90;;;;;;4967693;29;20039;-94
2022/12/02 06:27:28;;;;;;;69.43;19.65;;;1.30;99.90;;;;;;4974932;29;20048;-94
2022/12/02 06:30:03;;;;;;;75.80;19.77;;;1.30;99.90;;;;;;4974741;29;20099;-95
2022/12/02 06:32:39;;;;;;;67.47;19.38;;;1.40;99.90;;;;;;4974923;29;20517;-94
2022/12/02 06:35:21;;;;;;;61.22;19.20;;;1.40;99.90;;;;;;4960355;29;20055;-94
2022/12/02 06:37:47;;;;;;;64.82;20.08;;;1.40;99.90;;;;;;4975048;29;20023;-94
2022/12/02 06:40:26;;;;;;;60.10;19.23;;;1.30;99.90;;;;;;4977912;29;20054;-96
2022/12/02 06:42:59;;;;;;;72.55;18.52;;;1.40;99.90;;;;;;4978727;29;20027;-95
2022/12/02 06:45:29;;;;;;;66.13;18.50;;;1.30;99.90;;;;;;4979464;29;20054;-93
2022/12/02 06:48:02;;;;;;;61.30;18.25;;;1.30;99.90;;;;;;4979763;28;20055;-95
2022/12/02 06:50:32;;;;;;;60.17;19.08;;;1.30;99.90;;;;;;4978733;29;20015;-93
2022/12/02 06:53:21;;;;;;;;;;;1.30;99.90;;;;;;4978530;29;20043;-94
2022/12/02 06:55:49;;;;;;;59.47;17.38;;;1.30;99.90;;;;;;4972756;28;19906;-93
2022/12/02 06:58:37;;;;;;;63.60;19.80;;;1.30;99.90;;;;;;4985615;28;20157;-95
2022/12/02 07:01:07;;;;;;;58.70;17.52;;;1.30;99.90;;;;;;4984535;28;20035;-95
2022/12/02 07:03:37;;;;;;;62.10;18.70;;;1.40;99.90;;;;;;4988796;28;20031;-94
2022/12/02 07:06:40;;;;;;;65.18;19.45;;;1.30;99.90;;;;;;4995119;28;20102;-94
2022/12/02 07:09:11;;;;;;;55.83;18.23;;;1.40;99.90;;;;;;4981255;28;20023;-93
2022/12/02 07:11:48;;;;;;;62.42;19.30;;;1.40;99.90;;;;;;4987061;28;20031;-95
2022/12/02 07:14:25;;;;;;;58.38;17.23;;;1.40;99.90;;;;;;4989990;28;20087;-95
2022/12/02 07:16:53;;;;;;;61.50;18.40;;;1.40;99.90;;;;;;4983006;28;20027;-94
2022/12/02 07:19:29;;;;;;;58.67;18.50;;;1.50;99.90;;;;;;4987090;28;20136;-94
2022/12/02 07:21:55;;;;;;;62.70;16.88;;;1.50;99.90;;;;;;4981855;28;20082;-94
2022/12/02 07:24:55;;;;;;;62.80;18.65;;;1.50;99.90;;;;;;4981272;28;20035;-93
2022/12/02 07:27:28;;;;;;;65.22;18.38;;;1.60;99.90;;;;;;4986145;28;20027;-94
2022/12/02 07:29:56;;;;;;;60.50;17.25;;;1.60;99.90;;;;;;4983968;28;20018;-95
2022/12/02 07:32:22;;;;;;;56.38;18.10;;;1.60;99.90;;;;;;4987069;28;20046;-93
2022/12/02 07:34:51;;;;;;;56.65;16.42;;;1.60;99.90;;;;;;4986879;28;20030;-94
2022/12/02 07:37:16;;;;;;;47.08;15.18;;;1.60;99.90;;;;;;4986097;28;20016;-94
2022/12/02 07:39:48;;;;;;;56.75;17.48;;;1.50;99.90;;;;;;4985574;28;20042;-94
2022/12/02 07:42:14;;;;;;;43.15;15.45;;;1.60;99.90;;;;;;4983981;28;20028;-95
2022/12/02 07:44:39;;;;;;;49.40;16.40;;;1.60;99.90;;;;;;4993024;28;20023;-93
2022/12/02 07:47:06;;;;;;;49.15;16.60;;;1.50;99.90;;;;;;4976391;28;20058;-93
2022/12/02 07:49:32;;;;;;;45.40;15.65;;;1.50;99.90;;;;;;4970983;28;20034;-94
2022/12/02 07:52:31;;;;;;;42.60;14.18;;;1.50;99.90;;;;;;4980061;28;20023;-95
2022/12/02 07:54:57;;;;;;;45.05;14.60;;;1.50;99.90;;;;;;4975874;28;20063;-95
2022/12/02 07:57:23;;;;;;;44.88;14.77;;;1.50;99.90;;;;;;4996959;28;20026;-95
2022/12/02 07:59:49;;;;;;;34.55;13.10;;;1.50;99.90;;;;;;4995769;28;20023;-94
2022/12/02 08:02:15;;;;;;;36.13;13.98;;;1.50;99.90;;;;;;4996289;28;20031;-96
2022/12/02 08:04:45;;;;;;;39.67;13.88;;;1.50;99.90;;;;;;4994668;28;20043;-93
2022/12/02 08:07:10;;;;;;;38.75;14.88;;;1.60;99.90;;;;;;4972563;28;20042;-95
2022/12/02 08:09:39;;;;;;;40.72;13.73;;;1.50;99.90;;;;;;4991141;28;20157;-92
2022/12/02 08:12:05;;;;;;;42.95;14.35;;;1.50;99.90;;;;;;4972384;28;20035;-95
2022/12/02 08:14:31;;;;;;;35.55;14.00;;;1.50;99.90;;;;;;4976956;28;20027;-95
2022/12/02 08:16:58;;;;;;;34.05;13.13;;;1.50;99.90;;;;;;4976736;28;20031;-94
2022/12/02 08:19:25;;;;;;;41.63;14.98;;;1.50;99.90;;;;;;4958675;29;20039;-95
2022/12/02 08:21:51;;;;;;;40.85;13.65;;;1.50;99.90;;;;;;4973464;29;20027;-95
2022/12/02 08:24:18;;;;;;;36.35;13.48;;;1.50;99.90;;;;;;4974295;28;20051;-95
2022/12/02 08:26:46;;;;;;;42.72;13.70;;;1.50;99.90;;;;;;4973839;28;20031;-93
2022/12/02 08:29:16;;;;;;;43.03;14.90;;;1.50;99.90;;;;;;4974599;29;20031;-94
2022/12/02 08:31:42;;;;;;;43.90;14.35;;;1.50;99.90;;;;;;4980330;28;20046;-94
2022/12/02 08:34:07;;;;;;;41.67;14.23;;;1.50;99.90;;;;;;4979503;28;20039;-94
2022/12/02 08:36:36;;;;;;;45.15;15.57;;;1.50;99.90;;;;;;4970572;29;20031;-96
2022/12/02 08:39:04;;;;;;;51.28;15.88;;;1.50;99.90;;;;;;4969313;29;20020;-94
2022/12/02 08:41:31;;;;;;;42.80;14.23;;;1.50;99.90;;;;;;4973677;29;20082;-94
2022/12/02 08:43:58;;;;;;;41.38;15.30;;;1.40;99.90;;;;;;4971639;29;20031;-96
2022/12/02 08:46:27;;;;;;;44.75;15.50;;;1.50;99.90;;;;;;4974503;29;20047;-94
2022/12/02 08:48:54;;;;;;;42.97;15.68;;;1.40;99.90;;;;;;4975108;28;20086;-92
2022/12/02 08:51:20;;;;;;;50.55;15.68;;;1.50;99.90;;;;;;4970541;28;20047;-95
2022/12/02 08:53:46;;;;;;;43.30;15.27;;;1.50;99.90;;;;;;4959126;29;20050;-96
2022/12/02 08:56:12;;;;;;;41.22;14.30;;;1.50;99.90;;;;;;4960277;29;20556;-95
2022/12/02 08:58:37;;;;;;;44.35;15.10;;;1.50;99.90;;;;;;4958281;29;20023;-96
2022/12/02 09:01:04;;;;;;;44.70;15.57;;;1.60;99.90;;;;;;4959141;29;20039;-96
2022/12/02 09:03:29;;;;;;;44.65;14.80;;;1.60;99.90;;;;;;4958387;29;20024;-95
2022/12/02 09:05:55;;;;;;;42.35;14.05;;;1.60;99.90;;;;;;4957998;29;20058;-96
2022/12/02 09:08:21;;;;;;;45.38;15.50;;;1.60;99.90;;;;;;4958986;29;20031;-95
2022/12/02 09:10:47;;;;;;;39.42;15.18;;;1.60;99.90;;;;;;4958878;29;20090;-96
2022/12/02 09:13:13;;;;;;;43.72;14.90;;;1.70;99.90;;;;;;4958435;29;20020;-96
2022/12/02 09:15:39;;;;;;;42.25;14.70;;;1.70;99.90;;;;;;4959400;29;20033;-94
2022/12/02 09:18:04;;;;;;;40.13;14.90;;;1.70;99.90;;;;;;4958623;29;20024;-96
2022/12/02 09:20:30;;;;;;;39.05;15.07;;;1.70;99.90;;;;;;4966238;28;20392;-95
2022/12/02 09:22:56;;;;;;;37.13;15.25;;;1.80;99.90;;;;;;4968068;28;20050;-95
2022/12/02 09:25:22;;;;;;;45.10;17.45;;;1.70;99.90;;;;;;4967995;28;20117;-96
2022/12/02 09:27:47;;;;;;;39.63;14.27;;;1.80;99.90;;;;;;4972389;28;20027;-96
2022/12/02 09:30:13;;;;;;;41.70;15.60;;;1.80;99.90;;;;;;4970127;28;20450;-96
2022/12/02 09:32:39;;;;;;;55.97;19.60;;;1.80;99.90;;;;;;4972394;28;20113;-96
2022/12/02 09:35:05;;;;;;;49.97;18.73;;;1.80;99.90;;;;;;4975980;28;20073;-96
2022/12/02 09:37:31;;;;;;;44.60;17.15;;;1.90;99.90;;;;;;4972454;28;20087;-96
2022/12/02 09:39:57;;;;;;;48.30;18.40;;;1.90;99.90;;;;;;4973880;28;20065;-96
2022/12/02 09:42:23;;;;;;;46.85;17.85;;;2.00;99.90;;;;;;4973069;28;20025;-95
2022/12/02 09:44:49;;;;;;;48.30;18.52;;;2.00;99.90;;;;;;4975297;28;20059;-96
2022/12/02 09:47:16;;;;;;;42.47;16.65;;;2.10;99.90;;;;;;4979013;28;20054;-95
2022/12/02 09:49:43;;;;;;;40.13;16.75;;;2.10;99.90;;;;;;4969987;28;20019;-96
2022/12/02 09:52:15;;;;;;;45.28;16.80;;;2.10;99.90;;;;;;4971783;28;20032;-96
2022/12/02 09:54:43;;;;;;;47.75;15.95;;;2.20;99.90;;;;;;4979124;28;20058;-96
2022/12/02 09:57:14;;;;;;;43.88;15.45;;;2.20;99.90;;;;;;4972717;28;20015;-95
2022/12/02 09:59:40;;;;;;;35.30;13.65;;;2.30;99.90;;;;;;4986601;28;20022;-94
2022/12/02 10:02:28;;;;;;;39.45;13.43;;;2.30;99.90;;;;;;4975973;28;20449;-96
2022/12/02 10:04:58;;;;;;;39.17;13.88;;;2.40;99.90;;;;;;4968289;28;20031;-95
2022/12/02 10:07:24;;;;;;;37.60;14.10;;;2.40;99.90;;;;;;4968990;28;20109;-95
2022/12/02 10:09:49;;;;;;;36.55;13.70;;;2.50;99.90;;;;;;4968292;28;20204;-96
2022/12/02 10:12:15;;;;;;;38.05;13.35;;;2.50;99.90;;;;;;4967684;28;20245;-95
2022/12/02 10:14:47;;;;;;;41.55;14.98;;;2.50;99.90;;;;;;4965977;28;20032;-96
2022/12/02 10:17:18;;;;;;;43.65;13.57;;;2.60;99.90;;;;;;4967914;28;20094;-96
2022/12/02 10:19:45;;;;;;;37.53;12.63;;;2.60;99.90;;;;;;4965019;28;20031;-96
2022/12/02 10:22:21;;;;;;;39.05;13.70;;;2.60;99.90;;;;;;4968116;28;20055;-96
2022/12/02 10:24:48;;;;;;;42.28;14.75;;;2.60;99.90;;;;;;4970493;28;20027;-95
2022/12/02 10:27:29;;;;;;;39.80;13.45;;;2.70;99.90;;;;;;4966792;28;20038;-94
2022/12/02 10:30:14;;;;;;;39.90;15.20;;;2.80;99.90;;;;;;4956320;28;20035;-95
2022/12/02 10:32:40;;;;;;;42.95;14.63;;;2.80;99.90;;;;;;4971262;28;20031;-95
2022/12/02 10:35:09;;;;;;;37.35;12.85;;;2.80;99.90;;;;;;4972186;28;20511;-95
2022/12/02 10:37:39;;;;;;;40.97;14.57;;;2.90;99.90;;;;;;4972745;28;20024;-96
2022/12/02 10:40:07;;;;;;;;;;;2.90;99.90;;;;;;4959610;29;20027;-94
2022/12/02 10:42:42;;;;;;;45.97;13.93;;;3.00;99.90;;;;;;4958997;29;19949;-96
2022/12/02 10:45:22;;;;;;;41.72;14.27;;;3.00;99.90;;;;;;4961940;29;20043;-95
2022/12/02 10:48:08;;;;;;;41.90;15.98;;;3.10;99.90;;;;;;4972751;28;20032;-96
2022/12/02 10:50:34;;;;;;;36.90;14.38;;;3.10;99.90;;;;;;4973366;29;20117;-95
2022/12/02 10:53:01;;;;;;;43.42;14.55;;;3.10;99.90;;;;;;4962394;29;20071;-96
2022/12/02 10:55:27;;;;;;;35.15;14.23;;;3.20;99.90;;;;;;4970601;28;20042;-96
2022/12/02 10:57:54;;;;;;;39.78;13.98;;;3.20;99.90;;;;;;4968663;29;20035;-96
2022/12/02 11:00:26;;;;;;;43.03;15.25;;;3.20;99.90;;;;;;4964160;29;20027;-96
2022/12/02 11:02:59;;;;;;;40.92;14.30;;;3.30;99.90;;;;;;4959706;29;20031;-96
2022/12/02 11:05:34;;;;;;;38.15;12.60;;;3.30;99.90;;;;;;4959405;29;20049;-95
2022/12/02 11:08:15;;;;;;;38.20;12.50;;;3.30;99.90;;;;;;4959331;29;20385;-95
2022/12/02 11:10:44;;;;;;;35.85;12.95;;;3.40;99.90;;;;;;4960347;29;20046;-96
2022/12/02 11:13:19;;;;;;;45.30;13.60;;;3.40;99.90;;;;;;4960189;29;20016;-95
2022/12/02 11:15:50;;;;;;;44.67;14.85;;;3.50;99.90;;;;;;4959467;29;20086;-95
2022/12/02 11:18:22;;;;;;;40.05;14.25;;;3.50;99.90;;;;;;4956987;29;20031;-95
2022/12/02 11:20:52;;;;;;;36.95;12.75;;;3.60;99.90;;;;;;4957269;29;20167;-95
2022/12/02 11:23:21;;;;;;;41.85;13.40;;;3.60;99.90;;;;;;4957674;29;20118;-95
2022/12/02 11:25:47;;;;;;;39.45;12.70;;;3.70;99.90;;;;;;4957373;29;20047;-95
2022/12/02 11:28:28;;;;;;;39.53;13.95;;;3.80;99.90;;;;;;4957436;29;20206;-95
2022/12/02 11:31:09;;;;;;;37.88;13.85;;;3.80;99.90;;;;;;4958053;29;20039;-95
2022/12/02 11:33:52;;;;;;;36.85;12.18;;;3.90;99.90;;;;;;4958659;29;20066;-96
2022/12/02 11:36:26;;;;;;;34.33;12.95;;;3.90;99.90;;;;;;4958578;29;20042;-96
2022/12/02 11:38:52;;;;;;;39.25;13.27;;;3.90;99.90;;;;;;4958527;29;20023;-96
2022/12/02 11:41:22;;;;;;;35.75;13.95;;;3.90;99.90;;;;;;4957807;29;20039;-95
2022/12/02 11:43:53;;;;;;;38.30;14.68;;;4.00;99.90;;;;;;4957644;29;20028;-96
2022/12/02 11:46:37;;;;;;;40.30;12.55;;;4.10;99.90;;;;;;4957790;28;20043;-96
2022/12/02 11:49:37;;;;;;;41.40;14.60;;;4.10;99.90;;;;;;4959667;29;20031;-95
2022/12/02 11:52:09;;;;;;;38.85;14.10;;;4.20;99.90;;;;;;4964899;29;20097;-96
2022/12/02 11:54:43;;;;;;;36.70;12.88;;;4.20;99.90;;;;;;4972960;29;20115;-95
2022/12/02 11:57:30;;;;;;;36.13;12.73;;;4.30;99.90;;;;;;4968886;28;20042;-96
2022/12/02 11:59:57;;;;;;;36.55;12.90;;;4.30;99.90;;;;;;4960556;29;20039;-96
2022/12/02 12:02:34;;;;;;;34.65;14.27;;;4.30;99.90;;;;;;4961134;29;20031;-96
2022/12/02 12:05:05;;;;;;;35.17;13.48;;;4.40;99.90;;;;;;4961471;29;20039;-96
2022/12/02 12:07:48;;;;;;;40.33;14.82;;;4.50;99.90;;;;;;4961253;29;20536;-96
2022/12/02 12:10:28;;;;;;;41.45;15.63;;;4.60;99.90;;;;;;4961101;29;20038;-96
2022/12/02 12:13:11;;;;;;;39.95;13.68;;;4.70;99.90;;;;;;4959710;29;20042;-96
2022/12/02 12:15:50;;;;;;;37.65;14.82;;;4.80;99.90;;;;;;4960810;29;20091;-96
2022/12/02 12:18:34;;;;;;;35.22;14.23;;;4.90;99.90;;;;;;4960188;29;20038;-96
2022/12/02 12:21:00;;;;;;;42.05;16.40;;;5.00;99.90;;;;;;4960027;29;20039;-96
2022/12/02 12:23:28;;;;;;;48.80;18.52;;;5.00;99.90;;;;;;4960823;29;20027;-96
2022/12/02 12:25:53;;;;;;;39.65;16.02;;;5.10;99.90;;;;;;4962197;29;20059;-96
2022/12/02 12:28:31;;;;;;;43.95;16.13;;;5.20;99.90;;;;;;4964582;29;20028;-95
2022/12/02 12:31:01;;;;;;;47.97;15.82;;;5.30;99.90;;;;;;4963541;29;20030;-94
2022/12/02 12:33:27;;;;;;;37.60;15.43;;;5.50;99.90;;;;;;4961718;29;20027;-95
2022/12/02 12:35:54;;;;;;;44.00;15.48;;;5.80;99.90;;;;;;4959330;29;20117;-95
2022/12/02 12:38:22;;;;;;;39.25;13.77;;;6.00;99.90;;;;;;4972201;29;20023;-96
2022/12/02 12:40:48;;;;;;;42.83;14.40;;;6.30;99.90;;;;;;4966200;28;20056;-89
2022/12/02 12:43:17;;;;;;;35.45;13.95;;;6.60;99.90;;;;;;4993704;28;20062;-96
2022/12/02 12:45:43;;;;;;;36.50;14.85;;;6.90;99.90;;;;;;4995385;28;20039;-95
2022/12/02 12:48:09;;;;;;;32.10;13.35;;;7.30;99.90;;;;;;4980920;28;20023;-95
2022/12/02 12:50:35;;;;;;;33.40;13.30;;;7.60;99.90;;;;;;4976825;28;20034;-96
2022/12/02 12:53:01;;;;;;;35.58;14.23;;;7.80;99.90;;;;;;4964379;29;20028;-95